createdAt,value
2018-06-23T00:01:48.421Z,6.57
2018-06-23T00:04:16.520Z,5.47
2018-06-23T00:06:44.931Z,5.17
2018-06-23T00:09:13.099Z,5.50
2018-06-23T00:11:41.213Z,4.53
2018-06-23T00:14:09.595Z,4.60
2018-06-23T00:16:38.011Z,4.40
2018-06-23T00:19:06.481Z,5.80
2018-06-23T00:21:34.591Z,6.17
2018-06-23T00:24:02.681Z,6.60
2018-06-23T00:26:31.393Z,6.00
2018-06-23T00:29:00.631Z,5.80
2018-06-23T00:31:29.340Z,5.50
2018-06-23T00:33:57.437Z,5.80
2018-06-23T00:36:25.814Z,5.33
2018-06-23T00:38:54.269Z,5.30
2018-06-23T00:41:22.358Z,5.03
2018-06-23T00:43:50.539Z,6.00
2018-06-23T00:46:18.725Z,4.83
2018-06-23T00:48:47.141Z,5.13
2018-06-23T00:51:15.574Z,5.10
2018-06-23T00:53:44.106Z,5.67
2018-06-23T00:56:12.538Z,5.37
2018-06-23T00:58:52.366Z,5.20
2018-06-23T01:01:20.492Z,5.23
2018-06-23T01:03:48.894Z,6.17
2018-06-23T01:06:17.292Z,5.80
2018-06-23T01:08:45.732Z,5.30
2018-06-23T01:11:13.835Z,5.10
2018-06-23T01:13:41.939Z,4.60
2018-06-23T01:16:10.378Z,5.57
2018-06-23T01:18:38.818Z,5.77
2018-06-23T01:21:06.930Z,5.30
2018-06-23T01:23:35.360Z,6.07
2018-06-23T01:26:03.568Z,5.57
2018-06-23T01:28:31.926Z,5.53
2018-06-23T01:31:00.042Z,5.83
2018-06-23T01:33:28.462Z,6.40
2018-06-23T01:35:56.565Z,5.40
2018-06-23T01:38:25.014Z,7.00
2018-06-23T01:40:53.428Z,5.33
2018-06-23T01:43:21.816Z,6.10
2018-06-23T01:45:50.232Z,5.60
2018-06-23T01:48:18.639Z,6.60
2018-06-23T01:50:47.092Z,6.40
2018-06-23T01:53:15.524Z,6.80
2018-06-23T01:55:43.633Z,6.00
2018-06-23T01:58:12.068Z,5.47
2018-06-23T02:00:40.459Z,6.47
2018-06-23T02:03:08.907Z,6.50
2018-06-23T02:05:37.276Z,6.43
2018-06-23T02:08:06.296Z,6.87
2018-06-23T02:10:34.421Z,5.17
2018-06-23T02:13:02.525Z,5.60
2018-06-23T02:15:36.262Z,6.37
2018-06-23T02:18:09.977Z,6.10
2018-06-23T02:20:43.802Z,6.23
2018-06-23T02:23:17.646Z,5.30
2018-06-23T02:25:51.430Z,5.60
2018-06-23T02:28:25.068Z,5.73
2018-06-23T02:30:58.826Z,5.77
2018-06-23T02:33:32.430Z,6.70
2018-06-23T02:36:00.839Z,5.43
2018-06-23T02:38:29.257Z,6.33
2018-06-23T02:40:57.785Z,5.40
2018-06-23T02:43:26.202Z,5.60
2018-06-23T02:45:54.315Z,5.90
2018-06-23T02:48:22.731Z,5.33
2018-06-23T02:50:51.131Z,5.87
2018-06-23T02:53:19.223Z,5.57
2018-06-23T02:55:47.657Z,4.70
2018-06-23T02:58:16.077Z,5.63
2018-06-23T03:00:44.474Z,4.93
2018-06-23T03:03:12.880Z,5.50
2018-06-23T03:05:41.294Z,5.13
2018-06-23T03:08:09.376Z,6.03
2018-06-23T03:10:37.827Z,5.93
2018-06-23T03:13:05.975Z,5.80
2018-06-23T03:15:34.342Z,6.00
2018-06-23T03:18:02.757Z,5.07
2018-06-23T03:20:32.225Z,5.23
2018-06-23T03:23:00.749Z,5.43
2018-06-23T03:25:28.811Z,6.37
2018-06-23T03:27:57.274Z,5.40
2018-06-23T03:30:25.671Z,4.77
2018-06-23T03:32:53.755Z,5.23
2018-06-23T03:35:22.149Z,5.30
2018-06-23T03:37:50.552Z,5.70
2018-06-23T03:40:18.979Z,5.03
2018-06-23T03:42:47.369Z,5.03
2018-06-23T03:45:15.495Z,4.90
2018-06-23T03:47:43.908Z,5.57
2018-06-23T03:50:12.306Z,5.33
2018-06-23T03:52:40.703Z,5.40
2018-06-23T03:55:09.133Z,5.80
2018-06-23T03:57:37.512Z,5.90
2018-06-23T04:00:05.627Z,5.30
2018-06-23T04:02:34.023Z,5.33
2018-06-23T04:05:02.441Z,6.30
2018-06-23T04:07:30.857Z,6.10
2018-06-23T04:09:58.959Z,5.57
2018-06-23T04:12:27.343Z,6.33
2018-06-23T04:14:55.490Z,6.17
2018-06-23T04:17:23.901Z,5.83
2018-06-23T04:19:52.051Z,6.20
2018-06-23T04:22:20.499Z,6.70
2018-06-23T04:24:48.927Z,6.00
2018-06-23T04:27:17.052Z,6.13
2018-06-23T04:29:45.359Z,6.80
2018-06-23T04:32:13.759Z,6.30
2018-06-23T04:34:42.003Z,5.83
2018-06-23T04:37:10.431Z,6.90
2018-06-23T04:39:38.528Z,7.50
2018-06-23T04:42:06.941Z,6.20
2018-06-23T04:44:35.317Z,6.07
2018-06-23T04:47:03.877Z,5.93
2018-06-23T04:49:33.316Z,7.33
2018-06-23T04:52:01.732Z,6.17
2018-06-23T04:54:30.149Z,6.57
2018-06-23T04:56:58.240Z,6.60
2018-06-23T04:59:27.385Z,5.83
2018-06-23T05:01:55.747Z,5.97
2018-06-23T05:04:24.232Z,7.07
2018-06-23T05:06:52.703Z,7.77
2018-06-23T05:09:20.875Z,6.93
2018-06-23T05:11:49.506Z,7.50
2018-06-23T05:14:17.978Z,7.17
2018-06-23T05:16:46.401Z,6.77
2018-06-23T05:19:14.827Z,6.40
2018-06-23T05:21:43.280Z,7.17
2018-06-23T05:24:11.722Z,7.00
2018-06-23T05:26:40.235Z,6.17
2018-06-23T05:29:08.717Z,6.00
2018-06-23T05:31:37.158Z,6.07
2018-06-23T05:34:05.685Z,6.60
2018-06-23T05:36:34.080Z,8.40
2018-06-23T05:39:02.248Z,6.50
2018-06-23T05:41:30.368Z,7.10
2018-06-23T05:43:58.792Z,6.90
2018-06-23T05:46:27.205Z,7.10
2018-06-23T05:48:55.335Z,6.40
2018-06-23T05:51:23.498Z,6.70
2018-06-23T05:53:51.889Z,6.30
2018-06-23T05:56:20.317Z,6.73
2018-06-23T05:58:48.758Z,6.83
2018-06-23T06:01:17.186Z,6.70
2018-06-23T06:03:45.380Z,7.40
2018-06-23T06:06:13.490Z,5.90
2018-06-23T06:08:41.877Z,7.00
2018-06-23T06:11:10.326Z,5.23
2018-06-23T06:13:38.436Z,6.33
2018-06-23T06:16:06.860Z,7.43
2018-06-23T06:18:35.001Z,6.00
2018-06-23T06:21:03.411Z,5.77
2018-06-23T06:23:31.535Z,6.30
2018-06-23T06:25:59.974Z,5.77
2018-06-23T06:28:28.442Z,6.90
2018-06-23T06:30:56.835Z,7.67
2018-06-23T06:33:31.564Z,7.30
2018-06-23T06:35:59.981Z,7.20
2018-06-23T06:38:28.394Z,5.90
2018-06-23T06:40:56.489Z,4.90
2018-06-23T06:43:24.942Z,5.87
2018-06-23T06:45:53.427Z,6.00
2018-06-23T06:48:22.015Z,4.73
2018-06-23T06:50:50.426Z,5.40
2018-06-23T06:53:18.853Z,4.90
2018-06-23T06:55:47.294Z,4.77
2018-06-23T06:58:15.728Z,7.20
2018-06-23T07:00:44.179Z,5.40
2018-06-23T07:03:12.599Z,5.27
2018-06-23T07:05:41.058Z,4.60
2018-06-23T07:08:09.447Z,4.70
2018-06-23T07:10:37.895Z,5.93
2018-06-23T07:13:06.355Z,5.30
2018-06-23T07:15:34.912Z,4.40
2018-06-23T07:18:03.493Z,4.20
2018-06-23T07:20:31.611Z,3.70
2018-06-23T07:23:00.105Z,4.33
2018-06-23T07:25:28.607Z,4.00
2018-06-23T07:27:57.045Z,3.93
2018-06-23T07:30:25.675Z,3.83
2018-06-23T07:32:54.107Z,5.23
2018-06-23T07:35:22.564Z,3.97
2018-06-23T07:37:50.999Z,4.00
2018-06-23T07:40:19.384Z,4.10
2018-06-23T07:42:47.883Z,4.27
2018-06-23T07:45:16.422Z,4.50
2018-06-23T07:47:44.827Z,3.77
2018-06-23T07:50:13.341Z,4.40
2018-06-23T07:52:41.835Z,3.77
2018-06-23T07:55:10.301Z,3.90
2018-06-23T07:57:38.889Z,3.60
2018-06-23T08:00:07.101Z,4.67
2018-06-23T08:02:35.190Z,4.40
2018-06-23T08:05:03.461Z,3.63
2018-06-23T08:07:31.717Z,3.30
2018-06-23T08:09:59.815Z,4.10
2018-06-23T08:12:27.999Z,4.93
2018-06-23T08:14:56.444Z,3.03
2018-06-23T08:17:24.885Z,3.53
2018-06-23T08:19:53.295Z,4.17
2018-06-23T08:22:21.415Z,3.30
2018-06-23T08:24:49.886Z,3.93
2018-06-23T08:27:17.983Z,4.20
2018-06-23T08:29:46.412Z,3.87
2018-06-23T08:32:14.808Z,3.70
2018-06-23T08:34:43.223Z,3.20
2018-06-23T08:37:11.425Z,3.23
2018-06-23T08:39:39.570Z,3.50
2018-06-23T08:42:08.037Z,3.10
2018-06-23T08:44:36.496Z,2.60
2018-06-23T08:47:04.654Z,3.03
2018-06-23T08:49:32.742Z,2.63
2018-06-23T08:52:01.221Z,4.00
2018-06-23T08:54:29.627Z,3.43
2018-06-23T08:56:58.116Z,3.13
2018-06-23T08:59:26.149Z,3.10
2018-06-23T09:01:54.748Z,4.00
2018-06-23T09:04:23.725Z,3.07
2018-06-23T09:06:51.823Z,3.10
2018-06-23T09:09:19.959Z,3.63
2018-06-23T09:11:48.889Z,3.57
2018-06-23T09:14:17.003Z,3.80
2018-06-23T09:16:45.453Z,4.00
2018-06-23T09:19:13.872Z,3.27
2018-06-23T09:21:42.301Z,3.43
2018-06-23T09:24:10.748Z,3.93
2018-06-23T09:26:38.903Z,3.53
2018-06-23T09:29:07.106Z,3.10
2018-06-23T09:31:35.769Z,4.33
2018-06-23T09:34:04.267Z,3.53
2018-06-23T09:36:32.686Z,3.03
2018-06-23T09:39:00.809Z,3.50
2018-06-23T09:41:28.958Z,3.23
2018-06-23T09:43:57.682Z,3.77
2018-06-23T09:46:26.114Z,3.13
2018-06-23T09:48:54.312Z,3.60
2018-06-23T09:51:22.767Z,4.37
2018-06-23T09:53:50.929Z,3.33
2018-06-23T09:56:19.442Z,3.20
2018-06-23T09:58:48.069Z,3.20
2018-06-23T10:01:16.586Z,3.37
2018-06-23T10:03:45.260Z,3.37
2018-06-23T10:06:13.391Z,3.57
2018-06-23T10:08:41.532Z,2.93
2018-06-23T10:11:09.941Z,3.73
2018-06-23T10:13:38.393Z,3.80
2018-06-23T10:16:06.540Z,3.60
2018-06-23T10:18:35.081Z,3.50
2018-06-23T10:21:03.616Z,4.03
2018-06-23T10:23:32.095Z,3.00
2018-06-23T10:26:00.183Z,3.00
2018-06-23T10:28:28.644Z,3.10
2018-06-23T10:30:57.410Z,3.60
2018-06-23T10:33:25.870Z,2.60
2018-06-23T10:35:54.337Z,3.27
2018-06-23T10:38:22.861Z,3.30
2018-06-23T10:40:51.430Z,3.50
2018-06-23T10:43:19.857Z,3.10
2018-06-23T10:45:48.340Z,3.30
2018-06-23T10:48:16.854Z,3.60
2018-06-23T10:50:45.290Z,3.27
2018-06-23T10:53:13.389Z,3.67
2018-06-23T10:55:41.832Z,3.50
2018-06-23T10:58:09.992Z,3.77
2018-06-23T11:00:38.900Z,3.17
2018-06-23T11:03:07.134Z,3.80
2018-06-23T11:05:35.281Z,4.00
2018-06-23T11:08:03.887Z,2.47
2018-06-23T11:10:32.374Z,2.60
2018-06-23T11:13:00.871Z,2.90
2018-06-23T11:15:28.996Z,2.80
2018-06-23T11:17:57.152Z,2.80
2018-06-23T11:20:25.291Z,3.23
2018-06-23T11:22:53.795Z,3.57
2018-06-23T11:25:22.264Z,3.27
2018-06-23T11:27:50.715Z,3.47
2018-06-23T11:30:19.225Z,3.43
2018-06-23T11:32:47.703Z,3.80
2018-06-23T11:35:16.110Z,3.33
2018-06-23T11:37:44.573Z,3.93
2018-06-23T11:40:13.052Z,3.70
2018-06-23T11:42:41.597Z,3.93
2018-06-23T11:45:10.014Z,4.43
2018-06-23T11:47:38.563Z,3.50
2018-06-23T11:50:07.049Z,3.40
2018-06-23T11:52:35.507Z,3.30
2018-06-23T11:55:04.014Z,3.77
2018-06-23T11:57:32.479Z,3.50
2018-06-23T12:00:00.658Z,3.80
2018-06-23T12:02:28.743Z,3.67
2018-06-23T12:04:57.155Z,3.37
2018-06-23T12:07:25.585Z,3.27
2018-06-23T12:09:53.735Z,3.40
2018-06-23T12:12:21.866Z,2.47
2018-06-23T12:14:50.402Z,3.20
2018-06-23T12:17:19.042Z,3.77
2018-06-23T12:19:47.146Z,3.37
2018-06-23T12:22:15.633Z,4.00
2018-06-23T12:24:44.147Z,3.73
2018-06-23T12:27:12.668Z,3.67
2018-06-23T12:29:41.034Z,4.20
2018-06-23T12:32:10.043Z,2.93
2018-06-23T12:34:38.522Z,3.70
2018-06-23T12:37:07.064Z,4.10
2018-06-23T12:39:35.508Z,3.00
2018-06-23T12:42:03.947Z,3.30
2018-06-23T12:44:32.359Z,3.57
2018-06-23T12:47:00.831Z,3.30
2018-06-23T12:49:29.287Z,3.20
2018-06-23T12:51:57.797Z,3.40
2018-06-23T12:54:26.501Z,3.40
2018-06-23T12:56:55.335Z,4.63
2018-06-23T12:59:23.560Z,4.10
2018-06-23T13:01:51.981Z,3.90
2018-06-23T13:04:20.580Z,3.27
2018-06-23T13:06:49.105Z,3.37
2018-06-23T13:09:17.502Z,3.37
2018-06-23T13:11:45.585Z,3.00
2018-06-23T13:14:13.677Z,3.10
2018-06-23T13:16:42.181Z,3.20
2018-06-23T13:19:10.612Z,3.07
2018-06-23T13:21:39.032Z,3.10
2018-06-23T13:24:07.219Z,3.40
2018-06-23T13:26:35.781Z,3.40
2018-06-23T13:29:03.919Z,3.70
2018-06-23T13:31:32.331Z,3.03
2018-06-23T13:34:00.805Z,2.87
2018-06-23T13:36:29.238Z,3.33
2018-06-23T13:38:57.889Z,2.60
2018-06-23T13:41:26.283Z,2.97
2018-06-23T13:43:54.401Z,3.13
2018-06-23T13:46:22.930Z,2.80
2018-06-23T13:48:51.493Z,2.60
2018-06-23T13:51:19.883Z,2.70
2018-06-23T13:53:48.380Z,3.07
2018-06-23T13:56:16.851Z,2.80
2018-06-23T13:58:45.276Z,2.83
2018-06-23T14:01:13.711Z,3.00
2018-06-23T14:03:42.104Z,3.00
2018-06-23T14:06:10.513Z,3.40
2018-06-23T14:08:39.089Z,3.40
2018-06-23T14:11:07.554Z,2.70
2018-06-23T14:13:36.194Z,2.50
2018-06-23T14:16:04.628Z,2.97
2018-06-23T14:18:33.171Z,3.40
2018-06-23T14:21:01.593Z,3.40
2018-06-23T14:23:30.028Z,3.03
2018-06-23T14:25:58.315Z,3.00
2018-06-23T14:28:26.836Z,3.70
2018-06-23T14:30:55.322Z,3.07
2018-06-23T14:33:24.007Z,3.10
2018-06-23T14:35:52.662Z,3.33
2018-06-23T14:38:21.218Z,3.17
2018-06-23T14:40:49.469Z,3.67
2018-06-23T14:43:17.691Z,4.00
2018-06-23T14:45:46.197Z,3.73
2018-06-23T14:48:14.432Z,3.10
2018-06-23T14:50:43.014Z,4.10
2018-06-23T14:53:11.506Z,3.20
2018-06-23T14:55:39.917Z,2.83
2018-06-23T14:58:08.362Z,3.20
2018-06-23T15:00:36.802Z,4.20
2018-06-23T15:03:05.281Z,3.33
2018-06-23T15:05:33.414Z,3.17
2018-06-23T15:08:13.276Z,3.20
2018-06-23T15:10:47.121Z,3.93
2018-06-23T15:13:17.378Z,2.70
2018-06-23T15:15:46.002Z,3.60
2018-06-23T15:18:14.395Z,3.30
2018-06-23T15:20:43.255Z,3.40
2018-06-23T15:23:11.759Z,2.47
2018-06-23T15:25:40.309Z,3.40
2018-06-23T15:28:08.971Z,2.93
2018-06-23T15:30:37.281Z,2.60
2018-06-23T15:33:05.731Z,2.93
2018-06-23T15:35:34.150Z,2.80
2018-06-23T15:38:02.421Z,3.50
2018-06-23T15:40:30.852Z,3.00
2018-06-23T15:42:59.318Z,3.20
2018-06-23T15:45:27.749Z,3.10
2018-06-23T15:47:55.868Z,3.20
2018-06-23T15:50:23.981Z,3.07
2018-06-23T15:52:52.495Z,2.50
2018-06-23T15:55:20.913Z,3.23
2018-06-23T15:57:49.347Z,2.53
2018-06-23T16:00:17.512Z,2.97
2018-06-23T16:02:46.211Z,3.80
2018-06-23T16:05:14.498Z,3.10
2018-06-23T16:07:43.035Z,2.90
2018-06-23T16:10:27.327Z,3.03
2018-06-23T16:12:56.225Z,3.17
2018-06-23T16:15:24.506Z,3.57
2018-06-23T16:17:52.928Z,2.70
2018-06-23T16:20:21.349Z,3.50
2018-06-23T16:22:49.469Z,2.97
2018-06-23T16:25:17.897Z,3.00
2018-06-23T16:27:46.007Z,2.60
2018-06-23T16:30:14.466Z,3.20
2018-06-23T16:32:42.626Z,2.93
2018-06-23T16:35:11.335Z,2.90
2018-06-23T16:37:39.619Z,3.10
2018-06-23T16:40:07.699Z,2.80
2018-06-23T16:42:36.196Z,3.83
2018-06-23T16:45:05.187Z,3.07
2018-06-23T16:47:33.670Z,3.30
2018-06-23T16:50:02.739Z,2.60
2018-06-23T16:52:31.273Z,3.30
2018-06-23T16:55:00.068Z,3.30
2018-06-23T16:57:28.537Z,3.13
2018-06-23T16:59:56.963Z,3.20
2018-06-23T17:02:25.168Z,2.83
2018-06-23T17:04:53.624Z,3.10
2018-06-23T17:07:22.264Z,2.97
2018-06-23T17:09:50.701Z,3.07
2018-06-23T17:12:25.403Z,3.00
2018-06-23T17:14:53.852Z,5.43
2018-06-23T17:17:22.267Z,3.00
2018-06-23T17:19:50.702Z,3.00
2018-06-23T17:22:19.122Z,3.07
2018-06-23T17:24:47.570Z,3.43
2018-06-23T17:27:16.083Z,4.80
2018-06-23T17:29:44.509Z,3.43
2018-06-23T17:32:12.948Z,3.37
2018-06-23T17:34:41.101Z,4.10
2018-06-23T17:37:09.536Z,2.93
2018-06-23T17:39:38.023Z,3.00
2018-06-23T17:42:06.141Z,2.87
2018-06-23T17:44:34.601Z,3.17
2018-06-23T17:47:03.178Z,3.17
2018-06-23T17:49:31.598Z,3.50
2018-06-23T17:51:59.717Z,3.40
2018-06-23T17:54:28.136Z,3.47
2018-06-23T17:56:56.696Z,3.37
2018-06-23T17:59:24.808Z,3.03
2018-06-23T18:01:53.069Z,2.97
2018-06-23T18:04:21.187Z,3.47
2018-06-23T18:06:49.316Z,3.43
2018-06-23T18:09:17.812Z,2.90
2018-06-23T18:11:46.275Z,2.83
2018-06-23T18:14:14.680Z,2.90
2018-06-23T18:16:42.791Z,2.80
2018-06-23T18:19:11.269Z,2.80
2018-06-23T18:21:39.453Z,2.90
2018-06-23T18:24:08.105Z,2.93
2018-06-23T18:26:36.270Z,2.87
2018-06-23T18:29:04.498Z,2.90
2018-06-23T18:31:33.049Z,3.10
2018-06-23T18:34:01.192Z,2.70
2018-06-23T18:36:29.738Z,3.07
2018-06-23T18:38:58.165Z,2.93
2018-06-23T18:41:26.273Z,2.03
2018-06-23T18:43:54.734Z,2.80
2018-06-23T18:46:22.855Z,3.07
2018-06-23T18:48:51.339Z,2.23
2018-06-23T18:51:19.476Z,2.30
2018-06-23T18:53:47.623Z,2.93
2018-06-23T18:56:15.783Z,3.30
2018-06-23T18:58:44.606Z,3.10
2018-06-23T19:01:13.365Z,2.73
2018-06-23T19:03:41.582Z,2.40
2018-06-23T19:06:09.742Z,2.77
2018-06-23T19:08:38.206Z,2.87
2018-06-23T19:11:06.706Z,3.53
2018-06-23T19:13:34.832Z,2.63
2018-06-23T19:16:03.332Z,2.60
2018-06-23T19:18:31.810Z,3.00
2018-06-23T19:21:00.283Z,2.60
2018-06-23T19:23:28.888Z,2.57
2018-06-23T19:25:57.404Z,2.53
2018-06-23T19:28:25.874Z,2.77
2018-06-23T19:30:54.355Z,3.00
2018-06-23T19:33:22.497Z,2.63
2018-06-23T19:35:50.753Z,2.77
2018-06-23T19:38:18.891Z,2.30
2018-06-23T19:40:47.489Z,2.93
2018-06-23T19:43:15.949Z,2.77
2018-06-23T19:45:44.432Z,2.77
2018-06-23T19:48:12.841Z,2.80
2018-06-23T19:50:40.976Z,2.53
2018-06-23T19:53:09.446Z,3.10
2018-06-23T19:55:37.601Z,2.77
2018-06-23T19:58:06.041Z,2.40
2018-06-23T20:00:34.189Z,2.73
2018-06-23T20:03:02.691Z,2.63
2018-06-23T20:05:30.819Z,3.03
2018-06-23T20:07:59.257Z,2.50
2018-06-23T20:10:27.385Z,2.30
2018-06-23T20:12:55.503Z,2.57
2018-06-23T20:15:24.022Z,2.87
2018-06-23T20:17:52.259Z,2.50
2018-06-23T20:20:20.441Z,2.83
2018-06-23T20:22:48.627Z,2.63
2018-06-23T20:25:17.100Z,2.80
2018-06-23T20:27:45.615Z,2.23
2018-06-23T20:30:14.093Z,3.67
2018-06-23T20:32:42.271Z,2.87
2018-06-23T20:35:10.826Z,2.83
2018-06-23T20:37:39.384Z,2.30
2018-06-23T20:40:07.573Z,2.80
2018-06-23T20:42:36.124Z,2.80
2018-06-23T20:45:04.542Z,3.27
2018-06-23T20:47:33.103Z,2.60
2018-06-23T20:50:01.487Z,2.63
2018-06-23T20:52:29.658Z,3.30
2018-06-23T20:54:58.305Z,3.10
2018-06-23T20:57:26.445Z,2.83
2018-06-23T20:59:54.966Z,2.87
2018-06-23T21:02:23.419Z,2.83
2018-06-23T21:04:51.945Z,2.83
2018-06-23T21:07:20.156Z,2.93
2018-06-23T21:09:48.293Z,3.70
2018-06-23T21:12:16.599Z,3.50
2018-06-23T21:14:45.042Z,3.00
2018-06-23T21:17:13.510Z,3.77
2018-06-23T21:19:41.938Z,3.00
2018-06-23T21:22:10.416Z,2.90
2018-06-23T21:24:38.645Z,3.60
2018-06-23T21:27:06.793Z,3.47
2018-06-23T21:29:35.284Z,3.20
2018-06-23T21:32:03.736Z,3.80
2018-06-23T21:34:32.372Z,3.60
2018-06-23T21:37:00.858Z,3.40
2018-06-23T21:39:29.303Z,3.50
2018-06-23T21:41:57.433Z,4.30
2018-06-23T21:44:25.852Z,3.80
2018-06-23T21:46:54.274Z,4.30
2018-06-23T21:49:22.737Z,3.80
2018-06-23T21:51:51.146Z,3.27
2018-06-23T21:54:19.358Z,4.17
2018-06-23T21:56:47.806Z,3.17
2018-06-23T21:59:16.170Z,3.50
2018-06-23T22:01:44.754Z,3.27
2018-06-23T22:04:13.180Z,3.27
2018-06-23T22:06:41.798Z,3.60
2018-06-23T22:09:11.269Z,3.40
2018-06-23T22:11:39.366Z,3.30
2018-06-23T22:14:07.997Z,3.30
2018-06-23T22:16:36.452Z,2.70
2018-06-23T22:19:04.580Z,3.50
2018-06-23T22:21:33.138Z,4.17
2018-06-23T22:24:01.282Z,3.40
2018-06-23T22:26:29.516Z,3.83
2018-06-23T22:28:57.965Z,3.57
2018-06-23T22:31:26.147Z,3.20
2018-06-23T22:33:54.288Z,4.13
2018-06-23T22:36:22.463Z,3.80
2018-06-23T22:38:50.605Z,3.30
2018-06-23T22:41:18.706Z,3.70
2018-06-23T22:43:46.812Z,3.20
2018-06-23T22:46:15.316Z,3.00
2018-06-23T22:48:43.750Z,3.40
2018-06-23T22:51:11.846Z,3.80
2018-06-23T22:53:40.270Z,2.80
2018-06-23T22:56:08.681Z,3.37
2018-06-23T22:58:37.206Z,3.83
2018-06-23T23:01:05.317Z,3.13
2018-06-23T23:03:33.812Z,3.30
2018-06-23T23:06:01.925Z,3.10
2018-06-23T23:08:30.567Z,3.20
2018-06-23T23:10:58.670Z,3.47
2018-06-23T23:13:27.059Z,4.20
2018-06-23T23:15:55.196Z,3.67
2018-06-23T23:18:23.289Z,3.70
2018-06-23T23:20:52.042Z,3.10
2018-06-23T23:23:20.506Z,3.60
2018-06-23T23:25:48.986Z,2.47
2018-06-23T23:28:17.795Z,3.00
2018-06-23T23:30:46.225Z,4.00
2018-06-23T23:33:14.386Z,3.60
2018-06-23T23:35:42.815Z,3.30
2018-06-23T23:38:11.388Z,3.53
2018-06-23T23:40:39.844Z,4.20
2018-06-23T23:43:08.244Z,2.90
2018-06-23T23:45:36.680Z,3.47
2018-06-23T23:48:04.821Z,3.93
2018-06-23T23:50:32.931Z,2.90
2018-06-23T23:53:01.353Z,4.40
2018-06-23T23:55:29.746Z,3.93
2018-06-23T23:57:57.867Z,3.20
